Time;durP1;ratioP1;P1;durP2;ratioP2;P2;SDS_P1;SDS_P2;PMS_P1;PMS_P2;Temp;Humidity;BMP_temperature;BMP_pressure;BME280_temperature;BME280_humidity;BME280_pressure;Samples;Min_cycle;Max_cycle;Signal;HPM_P1;HPM_P2
2021/08/25 00:01:47;;;;;;;;;;;;;;;36.46;20.49;94378.69;4898032;29;20251;-69
2021/08/25 00:04:14;;;;;;;;;;;;;;;36.42;20.70;94386.22;4898820;29;19923;-70
2021/08/25 00:06:40;;;;;;;;;;;;;;;36.35;20.36;94381.09;4899058;29;19927;-69
2021/08/25 00:09:07;;;;;;;;;;;;;;;36.42;20.55;94387.00;4898542;29;19926;-70
2021/08/25 00:11:34;;;;;;;;;;;;;;;36.50;20.45;94382.03;4898764;29;19931;-73
2021/08/25 00:14:01;;;;;;;;;;;;;;;36.34;20.50;94385.03;4906224;29;19927;-71
2021/08/25 00:16:28;;;;;;;;;;;;;;;36.48;20.54;94389.88;4917111;29;20270;-72
2021/08/25 00:18:54;;;;;;;;;;;;;;;36.47;20.74;94393.81;4917288;29;19919;-72
2021/08/25 00:21:21;;;;;;;;;;;;;;;36.19;20.82;94392.25;4918014;29;20220;-68
2021/08/25 00:23:48;;;;;;;;;;;;;;;36.32;20.97;94392.88;4911604;29;19924;-71
2021/08/25 00:26:15;;;;;;;;;;;;;;;36.21;21.06;94385.16;4899145;29;19954;-72
2021/08/25 00:28:42;;;;;;;;;;;;;;;36.29;21.00;94396.47;4899286;29;20307;-71
2021/08/25 00:31:08;;;;;;;;;;;;;;;36.22;21.02;94389.38;4898865;29;19934;-71
2021/08/25 00:33:35;;;;;;;;;;;;;;;36.29;20.64;94389.06;4898423;29;19996;-70
2021/08/25 00:36:02;;;;;;;;;;;;;;;36.33;20.57;94389.72;4898944;29;19954;-69
2021/08/25 00:38:29;;;;;;;;;;;;;;;36.35;20.55;94381.84;4899268;29;20326;-70
2021/08/25 00:40:56;;;;;;;;;;;;;;;36.31;20.45;94369.59;4899417;29;19919;-68
2021/08/25 00:43:23;;;;;;;;;;;;;;;36.33;20.67;94381.53;4900314;29;20350;-71
2021/08/25 00:45:50;;;;;;;;;;;;;;;36.06;21.15;94387.66;4917765;29;19927;-70
2021/08/25 00:48:17;;;;;;;;;;;;;;;36.22;21.03;94389.38;4918328;29;19923;-70
2021/08/25 00:50:47;;;;;;;;;;;;;;;36.14;20.99;94394.31;4917546;29;19923;-69
2021/08/25 00:53:14;;;;;;;;;;;;;;;36.20;21.25;94399.19;4916218;29;19919;-69
2021/08/25 00:55:41;;;;;;;;;;;;;;;36.31;21.15;94385.94;4899706;29;19931;-70
2021/08/25 00:58:09;;;;;;;;;;;;;;;36.24;21.39;94378.78;4898979;29;19923;-71
2021/08/25 01:00:42;;;;;;;;;;;;;;;36.24;21.10;94381.50;4899059;29;19926;-71
2021/08/25 01:03:13;;;;;;;;;;;;;;;36.26;21.03;94381.81;4899140;29;19923;-71
2021/08/25 01:05:41;;;;;;;;;;;;;;;36.06;21.58;94387.66;4897713;29;19923;-70
2021/08/25 01:08:11;;;;;;;;;;;;;;;36.01;21.66;94380.09;4917122;29;20239;-62
2021/08/25 01:10:38;;;;;;;;;;;;;;;36.14;21.53;94371.81;4901586;29;19931;-66
2021/08/25 01:13:06;;;;;;;;;;;;;;;36.11;21.94;94359.88;4917210;29;19920;-70
2021/08/25 01:15:33;;;;;;;;;;;;;;;36.00;22.00;94367.72;4917668;29;19930;-67
2021/08/25 01:18:05;;;;;;;;;;;;;;;36.10;22.01;94361.06;4917317;29;19923;-66
2021/08/25 01:20:32;;;;;;;;;;;;;;;36.06;22.25;94357.75;4917375;29;19927;-67
2021/08/25 01:22:59;;;;;;;;;;;;;;;36.11;22.04;94356.38;4919208;29;19931;-69
2021/08/25 01:25:26;;;;;;;;;;;;;;;36.08;21.91;94358.06;4904856;29;19928;-70
2021/08/25 01:27:55;;;;;;;;;;;;;;;36.22;22.13;94347.81;4901786;29;19930;-69
2021/08/25 01:30:26;;;;;;;;;;;;;;;36.22;21.89;94339.66;4902636;29;19934;-70
2021/08/25 01:32:53;;;;;;;;;;;;;;;35.92;22.54;94333.88;4901584;29;19927;-68
2021/08/25 01:35:19;;;;;;;;;;;;;;;36.16;21.74;94347.63;4901937;29;19919;-70
2021/08/25 01:37:46;;;;;;;;;;;;;;;36.26;21.74;94329.38;4902207;29;19919;-70
2021/08/25 01:40:13;;;;;;;;;;;;;;;36.02;22.18;94321.78;4902236;29;20683;-69
2021/08/25 01:42:43;;;;;;;;;;;;;;;36.11;22.18;94313.63;4901380;29;19923;-69
2021/08/25 01:45:10;;;;;;;;;;;;;;;36.02;22.27;94300.03;4901139;29;19920;-70
2021/08/25 01:47:37;;;;;;;;;;;;;;;36.24;21.88;94299.88;4901045;29;20326;-69
2021/08/25 01:50:04;;;;;;;;;;;;;;;36.15;22.03;94292.47;4900258;29;19931;-70
2021/08/25 01:52:31;;;;;;;;;;;;;;;36.13;22.02;94289.44;4901214;29;19920;-69
2021/08/25 01:54:58;;;;;;;;;;;;;;;36.24;22.02;94288.25;4900474;29;20301;-70
2021/08/25 01:57:25;;;;;;;;;;;;;;;36.18;22.01;94279.19;4900590;29;19923;-70
2021/08/25 01:59:51;;;;;;;;;;;;;;;35.83;22.59;94279.44;4900812;29;19929;-69
2021/08/25 02:02:18;;;;;;;;;;;;;;;35.92;22.39;94276.00;4901007;29;20208;-69
2021/08/25 02:04:45;;;;;;;;;;;;;;;36.20;22.33;94271.31;4902082;29;19923;-70
2021/08/25 02:07:12;;;;;;;;;;;;;;;35.99;22.25;94273.72;4910481;29;19934;-69
2021/08/25 02:09:39;;;;;;;;;;;;;;;35.92;22.41;94268.59;4919963;29;19926;-70
2021/08/25 02:12:06;;;;;;;;;;;;;;;35.83;22.80;94274.00;4919850;29;19930;-70
2021/08/25 02:14:34;;;;;;;;;;;;;;;35.89;22.42;94268.72;4920604;29;19923;-70
2021/08/25 02:17:01;;;;;;;;;;;;;;;36.05;22.49;94277.34;4912481;29;19920;-70
2021/08/25 02:19:28;;;;;;;;;;;;;;;35.94;22.46;94281.75;4901183;29;19920;-70
2021/08/25 02:21:55;;;;;;;;;;;;;;;36.04;22.35;94286.72;4900383;29;19927;-70
2021/08/25 02:24:21;;;;;;;;;;;;;;;35.99;22.89;94290.06;4904353;29;20377;-70
2021/08/25 02:26:48;;;;;;;;;;;;;;;36.04;22.43;94294.13;4900723;29;19935;-70
2021/08/25 02:29:15;;;;;;;;;;;;;;;36.12;22.48;94303.50;4900998;29;20354;-69
2021/08/25 02:31:42;;;;;;;;;;;;;;;36.13;22.32;94305.75;4900602;29;19957;-69
2021/08/25 02:34:09;;;;;;;;;;;;;;;36.00;22.74;94310.59;4900399;29;19923;-70
2021/08/25 02:36:36;;;;;;;;;;;;;;;35.99;22.85;94314.53;4901171;29;20324;-70
2021/08/25 02:39:03;;;;;;;;;;;;;;;35.83;23.00;94320.22;4901126;29;19919;-70
2021/08/25 02:41:29;;;;;;;;;;;;;;;35.87;23.21;94337.16;4901639;29;19930;-68
2021/08/25 02:43:56;;;;;;;;;;;;;;;35.58;23.27;94334.03;4900447;29;20316;-69
2021/08/25 02:46:23;;;;;;;;;;;;;;;35.85;23.20;94336.84;4900337;29;19919;-68
2021/08/25 02:48:50;;;;;;;;;;;;;;;35.70;23.20;94347.53;4901317;29;19920;-70
2021/08/25 02:51:17;;;;;;;;;;;;;;;35.62;23.39;94350.94;4900752;29;19934;-67
2021/08/25 02:53:44;;;;;;;;;;;;;;;35.40;23.70;94349.06;4900541;29;20311;-70
2021/08/25 02:56:11;;;;;;;;;;;;;;;35.36;23.61;94348.44;4901089;29;19982;-70
2021/08/25 02:58:38;;;;;;;;;;;;;;;35.33;23.74;94354.72;4918477;29;19919;-71
2021/08/25 03:01:04;;;;;;;;;;;;;;;35.49;23.42;94367.38;4920035;29;19922;-70
2021/08/25 03:03:31;;;;;;;;;;;;;;;35.46;23.51;94365.56;4919745;29;19923;-70
2021/08/25 03:05:58;;;;;;;;;;;;;;;35.53;23.40;94368.75;4911693;29;19947;-71
2021/08/25 03:08:25;;;;;;;;;;;;;;;35.64;23.45;94364.84;4900878;29;19935;-68
2021/08/25 03:10:52;;;;;;;;;;;;;;;35.54;23.48;94359.38;4906705;29;20263;-67
2021/08/25 03:13:19;;;;;;;;;;;;;;;35.58;23.52;94363.91;4914359;29;19923;-71
2021/08/25 03:15:46;;;;;;;;;;;;;;;35.31;24.00;94362.56;4900881;29;19919;-67
2021/08/25 03:18:13;;;;;;;;;;;;;;;35.42;23.68;94368.41;4899420;29;19930;-65
2021/08/25 03:20:39;;;;;;;;;;;;;;;35.43;23.80;94359.06;4900363;29;19924;-71
2021/08/25 03:23:06;;;;;;;;;;;;;;;34.75;24.93;94360.72;4898041;29;19930;-70
2021/08/25 03:25:33;;;;;;;;;;;;;;;34.03;25.59;94361.56;4890637;29;19924;-70
2021/08/25 03:28:00;;;;;;;;;;;;;;;34.51;25.02;94359.63;4894237;29;19927;-72
2021/08/25 03:30:27;;;;;;;;;;;;;;;34.71;24.99;94354.66;4898770;29;19924;-65
2021/08/25 03:32:54;;;;;;;;;;;;;;;34.28;25.26;94347.94;4898842;29;19920;-58
2021/08/25 03:35:20;;;;;;;;;;;;;;;34.59;24.85;94352.75;4899572;29;19923;-54
2021/08/25 03:37:47;;;;;;;;;;;;;;;34.56;25.01;94356.34;4899796;29;19924;-53
2021/08/25 03:40:14;;;;;;;;;;;;;;;34.54;24.95;94358.75;4887777;29;19920;-56
2021/08/25 03:42:41;;;;;;;;;;;;;;;34.61;24.72;94353.06;4880837;29;19924;-53
2021/08/25 03:45:08;;;;;;;;;;;;;;;34.88;24.47;94358.72;4898409;29;19924;-65
2021/08/25 03:47:35;;;;;;;;;;;;;;;34.66;24.72;94357.94;4899585;29;19919;-66
2021/08/25 03:50:02;;;;;;;;;;;;;;;34.76;24.58;94359.50;4899845;29;19931;-67
2021/08/25 03:52:29;;;;;;;;;;;;;;;34.63;24.74;94354.16;4899866;29;19934;-66
2021/08/25 03:54:56;;;;;;;;;;;;;;;35.07;24.11;94342.53;4898377;29;19927;-58
2021/08/25 03:57:22;;;;;;;;;;;;;;;34.80;24.50;94341.13;4899990;29;20327;-61
2021/08/25 03:59:49;;;;;;;;;;;;;;;34.83;24.31;94340.25;4900098;29;20326;-66
2021/08/25 04:02:16;;;;;;;;;;;;;;;34.66;24.65;94347.09;4900299;29;19919;-67
2021/08/25 04:04:43;;;;;;;;;;;;;;;34.58;24.51;94341.13;4899590;29;19935;-61
2021/08/25 04:07:10;;;;;;;;;;;;;;;34.59;24.68;94336.47;4899652;29;19927;-66
2021/08/25 04:09:37;;;;;;;;;;;;;;;34.98;24.14;94328.91;4900098;29;19919;-66
2021/08/25 04:12:04;;;;;;;;;;;;;;;34.98;24.21;94328.91;4899949;29;19935;-64
2021/08/25 04:14:30;;;;;;;;;;;;;;;34.87;24.22;94332.78;4899964;29;19919;-63
2021/08/25 04:16:57;;;;;;;;;;;;;;;34.82;24.37;94327.13;4899847;29;19919;-61
2021/08/25 04:19:24;;;;;;;;;;;;;;;34.67;24.33;94332.31;4899981;29;20247;-65
2021/08/25 04:21:51;;;;;;;;;;;;;;;34.61;24.56;94328.63;4899690;29;20522;-61
2021/08/25 04:24:18;;;;;;;;;;;;;;;34.93;24.12;94333.72;4916105;29;19930;-66
2021/08/25 04:26:44;;;;;;;;;;;;;;;34.87;24.28;94338.22;4917711;29;19930;-65
2021/08/25 04:29:11;;;;;;;;;;;;;;;34.59;24.69;94333.75;4918410;29;19923;-61
2021/08/25 04:31:38;;;;;;;;;;;;;;;35.04;24.12;94332.56;4917443;29;19923;-65
2021/08/25 04:34:05;;;;;;;;;;;;;;;34.99;24.09;94330.41;4917189;29;19926;-65
2021/08/25 04:36:32;;;;;;;;;;;;;;;34.81;24.23;94325.59;4917777;29;19928;-64
2021/08/25 04:38:59;;;;;;;;;;;;;;;35.05;23.72;94328.63;4918109;29;19923;-62
2021/08/25 04:41:25;;;;;;;;;;;;;;;35.02;23.67;94319.41;4917642;29;19919;-59
2021/08/25 04:43:52;;;;;;;;;;;;;;;34.85;23.92;94321.56;4917776;29;19919;-65
2021/08/25 04:46:19;;;;;;;;;;;;;;;34.93;23.79;94313.94;4918541;29;19930;-65
2021/08/25 04:48:46;;;;;;;;;;;;;;;35.12;23.51;94317.50;4918137;29;19923;-58
2021/08/25 04:51:13;;;;;;;;;;;;;;;34.98;23.65;94315.31;4918048;29;20381;-63
2021/08/25 04:53:40;;;;;;;;;;;;;;;35.11;23.42;94315.97;4903619;29;19926;-66
2021/08/25 04:56:07;;;;;;;;;;;;;;;35.11;23.49;94315.97;4900166;29;19931;-62
2021/08/25 04:58:34;;;;;;;;;;;;;;;35.21;23.37;94314.84;4916927;29;19927;-65
2021/08/25 05:01:03;;;;;;;;;;;;;;;35.06;23.87;94313.84;4921055;29;19927;-65
2021/08/25 05:03:30;;;;;;;;;;;;;;;35.07;23.71;94318.84;4921538;29;19927;-65
2021/08/25 05:05:57;;;;;;;;;;;;;;;35.24;23.80;94314.69;4921811;29;19919;-65
2021/08/25 05:08:24;;;;;;;;;;;;;;;35.57;23.19;94313.50;4917214;29;19930;-64
2021/08/25 05:10:51;;;;;;;;;;;;;;;35.51;23.37;94311.38;4902912;29;20261;-65
2021/08/25 05:13:18;;;;;;;;;;;;;;;35.45;23.27;94313.16;4902763;29;19923;-64
2021/08/25 05:15:45;;;;;;;;;;;;;;;35.49;23.30;94313.78;4921764;29;20270;-63
2021/08/25 05:18:12;;;;;;;;;;;;;;;35.29;23.65;94315.31;4909494;29;19923;-64
2021/08/25 05:20:39;;;;;;;;;;;;;;;35.60;23.10;94315.31;4901987;29;19927;-66
2021/08/25 05:23:05;;;;;;;;;;;;;;;35.54;22.92;94315.13;4911587;29;19927;-58
2021/08/25 05:25:32;;;;;;;;;;;;;;;35.48;23.21;94314.97;4921549;29;19923;-62
2021/08/25 05:27:59;;;;;;;;;;;;;;;35.59;23.20;94313.78;4920351;29;20334;-64
2021/08/25 05:30:26;;;;;;;;;;;;;;;35.75;22.82;94318.97;4904959;29;19931;-61
2021/08/25 05:32:53;;;;;;;;;;;;;;;35.71;23.21;94318.38;4902592;29;19928;-65
2021/08/25 05:35:20;;;;;;;;;;;;;;;35.76;23.01;94315.06;4918880;29;19919;-65
2021/08/25 05:37:47;;;;;;;;;;;;;;;35.95;22.58;94311.19;4914303;29;20250;-65
2021/08/25 05:40:14;;;;;;;;;;;;;;;36.22;22.18;94310.47;4902364;29;20326;-61
2021/08/25 05:42:41;;;;;;;;;;;;;;;35.86;22.56;94324.75;4902386;29;19924;-66
2021/08/25 05:45:08;;;;;;;;;;;;;;;36.14;22.61;94317.41;4902071;29;19920;-63
2021/08/25 05:47:36;;;;;;;;;;;;;;;36.13;22.76;94327.53;4907325;29;20311;-63
2021/08/25 05:50:03;;;;;;;;;;;;;;;36.20;22.69;94331.94;4920438;29;20330;-65
2021/08/25 05:52:30;;;;;;;;;;;;;;;36.22;22.88;94332.25;4920670;29;19930;-62
2021/08/25 05:54:57;;;;;;;;;;;;;;;36.41;22.63;94335.72;4920214;29;19923;-64
2021/08/25 05:57:24;;;;;;;;;;;;;;;36.48;22.40;94323.81;4912499;29;19923;-65
2021/08/25 05:59:51;;;;;;;;;;;;;;;36.57;22.36;94316.38;4920965;29;20226;-63
2021/08/25 06:02:18;;;;;;;;;;;;;;;36.77;21.63;94310.47;4921221;29;20243;-64
2021/08/25 06:04:44;;;;;;;;;;;;;;;36.69;21.93;94317.41;4909515;29;19934;-64
2021/08/25 06:07:11;;;;;;;;;;;;;;;36.91;21.56;94317.25;4901064;29;19994;-65
2021/08/25 06:09:38;;;;;;;;;;;;;;;36.99;21.61;94315.75;4901446;29;19927;-64
2021/08/25 06:12:05;;;;;;;;;;;;;;;37.05;21.52;94311.94;4901900;29;20235;-65
2021/08/25 06:14:32;;;;;;;;;;;;;;;36.98;21.49;94316.97;4910782;29;19930;-64
2021/08/25 06:16:59;;;;;;;;;;;;;;;37.25;21.06;94299.81;4920923;29;19923;-65
2021/08/25 06:19:28;;;;;;;;;;;;;;;37.07;21.20;94306.03;4920301;29;19926;-65
2021/08/25 06:21:54;;;;;;;;;;;;;;;37.49;20.68;94305.31;4920237;29;20329;-62
2021/08/25 06:24:21;;;;;;;;;;;;;;;37.33;20.96;94293.53;4918879;29;19943;-65
2021/08/25 06:26:48;;;;;;;;;;;;;;;37.66;20.48;94287.31;4932098;29;19934;-63
2021/08/25 06:29:15;;;;;;;;;;;;;;;37.74;20.14;94293.22;4921262;29;19926;-66
2021/08/25 06:31:42;;;;;;;;;;;;;;;37.96;19.80;94299.88;4920291;29;19934;-65
2021/08/25 06:34:08;;;;;;;;;;;;;;;38.09;19.50;94304.38;4919899;29;20333;-66
2021/08/25 06:36:35;;;;;;;;;;;;;;;38.28;19.31;94308.50;4907748;29;19919;-49
2021/08/25 06:39:02;;;;;;;;;;;;;;;38.30;19.22;94295.13;4901704;29;19930;-56
2021/08/25 06:41:29;;;;;;;;;;;;;;;38.54;19.04;94293.13;4918520;29;19923;-68
2021/08/25 06:43:56;;;;;;;;;;;;;;;39.15;18.38;94285.25;4914427;29;20452;-56
2021/08/25 06:46:23;;;;;;;;;;;;;;;39.16;18.22;94281.28;4903524;29;19923;-60
2021/08/25 06:48:50;;;;;;;;;;;;;;;38.66;18.71;94282.41;4905222;29;19919;-58
2021/08/25 06:51:16;;;;;;;;;;;;;;;39.16;18.28;94286.75;4900952;29;19924;-57
2021/08/25 06:53:43;;;;;;;;;;;;;;;39.56;17.97;94290.06;4900708;29;19930;-57
2021/08/25 06:56:10;;;;;;;;;;;;;;;39.46;17.88;94292.16;4900380;29;19927;-60
2021/08/25 06:58:37;;;;;;;;;;;;;;;38.50;18.54;94297.22;4900669;29;19919;-57
2021/08/25 07:01:04;;;;;;;;;;;;;;;38.25;18.84;94306.69;4901011;29;20143;-58
2021/08/25 07:03:31;;;;;;;;;;;;;;;38.12;19.60;94312.38;4900825;29;19926;-57
2021/08/25 07:05:57;;;;;;;;;;;;;;;37.74;20.57;94302.16;4919066;29;20393;-59
2021/08/25 07:08:24;;;;;;;;;;;;;;;37.64;20.12;94306.13;4908943;29;19934;-55
2021/08/25 07:10:51;;;;;;;;;;;;;;;37.51;20.40;94302.88;4900708;29;19931;-57
2021/08/25 07:13:18;;;;;;;;;;;;;;;37.45;20.58;94301.97;4900571;29;20323;-56
2021/08/25 07:15:45;;;;;;;;;;;;;;;37.79;20.06;94292.59;4917161;29;20307;-55
2021/08/25 07:18:12;;;;;;;;;;;;;;;37.57;20.26;94298.28;4911301;29;19923;-59
2021/08/25 07:20:39;;;;;;;;;;;;;;;37.71;20.65;94289.44;4900596;29;19927;-55
2021/08/25 07:23:05;;;;;;;;;;;;;;;38.67;19.49;94283.91;4909001;29;20298;-62
2021/08/25 07:25:32;;;;;;;;;;;;;;;38.70;19.60;94283.72;4918414;29;19931;-58
2021/08/25 07:27:59;;;;;;;;;;;;;;;38.24;19.75;94291.53;4918991;29;19923;-55
2021/08/25 07:30:26;;;;;;;;;;;;;;;38.29;19.84;94282.72;4918738;29;19926;-59
2021/08/25 07:32:53;;;;;;;;;;;;;;;40.10;18.18;94288.59;4917464;29;19931;-57
2021/08/25 07:35:20;;;;;;;;;;;;;;;40.54;17.77;94293.06;4900286;29;19920;-54
2021/08/25 07:37:47;;;;;;;;;;;;;;;41.29;17.01;94294.78;4903500;29;19919;-55
2021/08/25 07:40:13;;;;;;;;;;;;;;;41.64;16.71;94294.56;4919055;29;19927;-59
2021/08/25 07:42:40;;;;;;;;;;;;;;;41.51;16.74;94300.44;4918735;29;19926;-56
2021/08/25 07:45:07;;;;;;;;;;;;;;;41.93;16.53;94290.72;4907815;29;19919;-59
2021/08/25 07:47:34;;;;;;;;;;;;;;;41.82;16.49;94287.91;4917510;29;19927;-57
2021/08/25 07:50:01;;;;;;;;;;;;;;;40.91;17.31;94283.00;4899629;29;19926;-59
2021/08/25 07:52:28;;;;;;;;;;;;;;;40.97;17.40;94285.78;4904330;29;20254;-56
2021/08/25 07:54:55;;;;;;;;;;;;;;;41.37;17.05;94282.13;4913234;29;19932;-55
2021/08/25 07:57:22;;;;;;;;;;;;;;;41.34;17.09;94296.06;4900469;29;19927;-57
2021/08/25 07:59:49;;;;;;;;;;;;;;;40.14;17.92;94294.63;4917530;29;19926;-58
2021/08/25 08:02:15;;;;;;;;;;;;;;;39.97;18.08;94290.91;4919156;29;20250;-59
2021/08/25 08:04:42;;;;;;;;;;;;;;;39.46;18.72;94286.69;4909906;29;20327;-56
2021/08/25 08:07:09;;;;;;;;;;;;;;;39.74;18.22;94274.19;4919103;29;19923;-55
2021/08/25 08:09:36;;;;;;;;;;;;;;;40.25;17.83;94272.84;4901187;29;19924;-60
2021/08/25 08:12:04;;;;;;;;;;;;;;;40.31;17.80;94276.38;4899914;29;20334;-63
2021/08/25 08:14:30;;;;;;;;;;;;;;;40.45;17.63;94274.06;4903140;29;20314;-58
2021/08/25 08:17:00;;;;;;;;;;;;;;;40.73;17.26;94283.31;4919020;29;20311;-54
2021/08/25 08:19:30;;;;;;;;;;;;;;;40.27;17.85;94286.78;4903256;29;20231;-54
2021/08/25 08:21:58;;;;;;;;;;;;;;;40.48;17.65;94289.53;4900172;29;19920;-57
2021/08/25 08:24:25;;;;;;;;;;;;;;;39.82;18.58;94285.50;4913385;29;19939;-56
2021/08/25 08:26:52;;;;;;;;;;;;;;;40.63;17.76;94277.25;4917715;29;19923;-55
2021/08/25 08:29:19;;;;;;;;;;;;;;;39.83;18.49;94273.31;4904262;29;20304;-58
2021/08/25 08:31:46;;;;;;;;;;;;;;;39.55;18.92;94267.44;4901991;29;19928;-53
2021/08/25 08:34:13;;;;;;;;;;;;;;;39.57;18.69;94275.97;4903259;29;19923;-54
2021/08/25 08:36:40;;;;;;;;;;;;;;;39.04;19.11;94279.59;4903535;29;19927;-57
2021/08/25 08:39:07;;;;;;;;;;;;;;;38.98;19.34;94280.69;4915132;29;19923;-54
2021/08/25 08:41:34;;;;;;;;;;;;;;;39.99;18.57;94282.97;4922403;29;19926;-53
2021/08/25 08:44:01;;;;;;;;;;;;;;;39.45;18.91;94274.25;4921279;29;19985;-57
2021/08/25 08:46:27;;;;;;;;;;;;;;;39.48;19.03;94273.28;4904420;29;20318;-50
2021/08/25 08:48:55;;;;;;;;;;;;;;;38.86;19.68;94293.44;4893323;29;19927;-63
2021/08/25 08:51:23;;;;;;;;;;;;;;;38.71;19.43;94273.56;4903513;29;19927;-59
2021/08/25 08:53:50;;;;;;;;;;;;;;;38.79;19.88;94278.19;4902165;29;19928;-55
2021/08/25 08:56:17;;;;;;;;;;;;;;;39.18;19.47;94272.63;4902956;29;19927;-61
2021/08/25 08:58:44;;;;;;;;;;;;;;;39.15;19.15;94277.03;4902808;29;19945;-62
2021/08/25 09:01:11;;;;;;;;;;;;;;;40.07;18.33;94267.63;4902891;29;19923;-60
2021/08/25 09:03:39;;;;;;;;;;;;;;;40.20;18.19;94270.78;4903066;29;19926;-62
2021/08/25 09:06:06;;;;;;;;;;;;;;;40.53;17.90;94275.13;4916686;29;20307;-58
2021/08/25 09:08:34;;;;;;;;;;;;;;;40.57;17.88;94272.94;4914697;29;19927;-53
2021/08/25 09:11:08;;;;;;;;;;;;;;;40.22;18.05;94273.78;4902204;29;19927;-52
2021/08/25 09:13:35;;;;;;;;;;;;;;;40.88;17.09;94272.28;4902872;29;19931;-55
2021/08/25 09:16:02;;;;;;;;;;;;;;;40.07;18.03;94262.16;4902593;29;20323;-62
2021/08/25 09:18:29;;;;;;;;;;;;;;;39.77;18.37;94262.28;4908290;29;19923;-50
2021/08/25 09:20:56;;;;;;;;;;;;;;;39.61;18.45;94262.84;4921743;29;20326;-54
2021/08/25 09:23:24;;;;;;;;;;;;;;;39.88;18.28;94263.66;4904333;29;19931;-57
2021/08/25 09:25:51;;;;;;;;;;;;;;;39.49;18.38;94261.13;4921492;29;19931;-54
2021/08/25 09:28:19;;;;;;;;;;;;;;;39.28;18.78;94270.50;4904658;29;19930;-56
2021/08/25 09:31:02;;;;;;;;;;;;;;;39.20;18.88;94281.09;4921742;29;19923;-55
2021/08/25 09:33:29;;;;;;;;;;;;;;;40.09;17.89;94278.13;4920253;29;19954;-52
2021/08/25 09:36:01;;;;;;;;;;;;;;;40.64;17.64;94269.78;4904424;29;19935;-54
2021/08/25 09:38:30;;;;;;;;;;;;;;;40.77;17.28;94272.88;4916028;29;19926;-61
2021/08/25 09:41:07;;;;;;;;;;;;;;;41.04;17.15;94268.91;4901179;29;19931;-58
2021/08/25 09:43:42;;;;;;;;;;;;;;;41.12;17.09;94267.25;4885440;29;19930;-56
2021/08/25 09:46:10;;;;;;;;;;;;;;;41.25;16.68;94261.38;4915512;29;19993;-57
2021/08/25 09:48:43;;;;;;;;;;;;;;;40.17;17.76;94269.03;4914978;29;19923;-57
2021/08/25 09:51:11;;;;;;;;;;;;;;;39.88;17.96;94266.41;4901837;29;19927;-53
2021/08/25 09:53:38;;;;;;;;;;;;;;;39.56;18.43;94268.19;4901830;29;19935;-58
2021/08/25 09:56:38;;;;;;;;;;;;;;;39.51;18.88;94272.38;4914204;29;19930;-60
2021/08/25 09:59:06;;;;;;;;;;;;;;;39.29;19.72;94258.34;4888746;29;19919;-59
2021/08/25 10:01:33;;;;;;;;;;;;;;;39.09;19.82;94265.28;4921236;29;20390;-57
2021/08/25 10:04:03;;;;;;;;;;;;;;;39.27;19.78;94263.53;4920069;29;20259;-54
2021/08/25 10:06:30;;;;;;;;;;;;;;;39.09;20.33;94259.81;4920299;29;19927;-54
2021/08/25 10:08:57;;;;;;;;;;;;;;;39.05;22.26;94270.16;4920369;29;19919;-54
2021/08/25 10:11:30;;;;;;;;;;;;;;;38.75;22.02;94263.94;4906091;29;19924;-56
2021/08/25 10:14:05;;;;;;;;;;;;;;;38.61;23.35;94255.72;4885503;29;19923;-60
2021/08/25 10:16:36;;;;;;;;;;;;;;;38.61;24.38;94263.94;4917215;29;19923;-55
2021/08/25 10:19:22;;;;;;;;;;;;;;;38.98;24.27;94267.78;4911993;29;19930;-54
2021/08/25 10:21:49;;;;;;;;;;;;;;;38.85;23.90;94261.88;4901995;29;19930;-56
2021/08/25 10:24:16;;;;;;;;;;;;;;;38.79;22.95;94270.00;4919442;29;19958;-57
2021/08/25 10:26:55;;;;;;;;;;;;;;;39.50;22.37;94259.91;4903011;29;19923;-56
2021/08/25 10:29:21;;;;;;;;;;;;;;;40.03;21.20;94250.69;4919415;29;20311;-62
2021/08/25 10:31:48;;;;;;;;;;;;;;;39.75;21.48;94248.31;4908896;29;19926;-56
2021/08/25 10:34:21;;;;;;;;;;;;;;;40.61;20.02;94243.38;4901372;29;20351;-57
2021/08/25 10:36:48;;;;;;;;;;;;;;;40.31;20.24;94238.03;4918039;29;19919;-61
2021/08/25 10:39:30;;;;;;;;;;;;;;;40.13;20.35;94230.16;4919769;29;19926;-61
2021/08/25 10:41:57;;;;;;;;;;;;;;;40.63;19.56;94232.69;4920093;29;19919;-62
2021/08/25 10:44:37;;;;;;;;;;;;;;;39.89;20.06;94219.41;4903021;29;20250;-57
2021/08/25 10:47:04;;;;;;;;;;;;;;;40.56;19.17;94216.66;4901197;29;19919;-61
2021/08/25 10:49:31;;;;;;;;;;;;;;;40.13;19.69;94216.47;4900958;29;19919;-55
2021/08/25 10:52:13;;;;;;;;;;;;;;;40.12;19.18;94204.03;4900615;29;19920;-59
2021/08/25 10:54:41;;;;;;;;;;;;;;;40.47;19.16;94205.88;4899820;29;19934;-60
2021/08/25 10:57:11;;;;;;;;;;;;;;;40.00;19.29;94202.38;4900977;29;19920;-58
2021/08/25 10:59:38;;;;;;;;;;;;;;;40.59;18.58;94202.00;4900786;29;19928;-61
2021/08/25 11:02:05;;;;;;;;;;;;;;;40.32;19.08;94203.22;4900799;29;19927;-56
2021/08/25 11:04:32;;;;;;;;;;;;;;;40.10;18.80;94197.53;4884462;29;20316;-60
2021/08/25 11:07:04;;;;;;;;;;;;;;;39.81;19.05;94190.19;4918078;29;20231;-61
2021/08/25 11:09:31;;;;;;;;;;;;;;;39.85;18.89;94196.22;4908434;29;19927;-57
2021/08/25 11:12:12;;;;;;;;;;;;;;;39.62;19.23;94212.38;4900563;29;19926;-62
2021/08/25 11:14:45;;;;;;;;;;;;;;;39.73;18.91;94206.28;4900777;29;20251;-58
2021/08/25 11:17:21;;;;;;;;;;;;;;;39.88;19.01;94206.22;4919368;29;19923;-62
2021/08/25 11:19:48;;;;;;;;;;;;;;;39.51;19.13;94206.75;4906552;29;19923;-59
2021/08/25 11:22:19;;;;;;;;;;;;;;;39.90;18.69;94198.28;4885679;29;20247;-61
2021/08/25 11:24:50;;;;;;;;;;;;;;;39.74;19.01;94196.84;4919757;29;19962;-62
2021/08/25 11:27:19;;;;;;;;;;;;;;;40.13;18.52;94205.53;4919240;29;19920;-59
2021/08/25 11:30:00;;;;;;;;;;;;;;;40.18;18.31;94213.03;4906206;29;19927;-63
2021/08/25 11:32:27;;;;;;;;;;;;;;;39.86;18.58;94195.75;4900748;29;19927;-53
2021/08/25 11:34:55;;;;;;;;;;;;;;;39.95;18.42;94183.94;4899977;29;19919;-57
2021/08/25 11:37:21;;;;;;;;;;;;;;;39.95;18.51;94178.44;4900640;29;19939;-54
2021/08/25 11:39:58;;;;;;;;;;;;;;;39.92;18.51;94187.59;4911814;29;19926;-55
2021/08/25 11:42:28;;;;;;;;;;;;;;;39.90;18.52;94181.84;4919501;29;19926;-58
2021/08/25 11:44:55;;;;;;;;;;;;;;;39.90;18.42;94177.13;4919094;29;20258;-56
2021/08/25 11:47:22;;;;;;;;;;;;;;;39.93;18.51;94169.94;4900396;29;19927;-56
2021/08/25 11:49:50;;;;;;;;;;;;;;;39.85;18.38;94158.69;4900287;29;19919;-55
2021/08/25 11:52:18;;;;;;;;;;;;;;;39.63;18.60;94150.97;4882725;29;19930;-56
2021/08/25 11:54:44;;;;;;;;;;;;;;;39.81;18.20;94140.94;4899756;29;20235;-56
2021/08/25 11:57:12;;;;;;;;;;;;;;;39.60;18.62;94149.19;4901026;29;20235;-56
2021/08/25 11:59:54;;;;;;;;;;;;;;;39.84;18.12;94151.72;4917833;29;19950;-57
2021/08/25 12:02:21;;;;;;;;;;;;;;;39.48;18.86;94144.78;4919258;29;19927;-53
2021/08/25 12:04:48;;;;;;;;;;;;;;;39.47;19.62;94140.53;4918474;29;20303;-57
2021/08/25 12:07:14;;;;;;;;;;;;;;;39.24;20.41;94127.81;4918696;29;19919;-58
2021/08/25 12:09:42;;;;;;;;;;;;;;;39.17;20.73;94115.31;4918677;29;19923;-56
2021/08/25 12:12:09;;;;;;;;;;;;;;;39.61;20.33;94106.94;4918860;29;19927;-59
2021/08/25 12:14:49;;;;;;;;;;;;;;;39.67;21.07;94105.00;4919047;29;20230;-56
2021/08/25 12:17:15;;;;;;;;;;;;;;;39.49;21.60;94105.28;4918702;29;19950;-60
2021/08/25 12:19:55;;;;;;;;;;;;;;;39.33;21.01;94103.84;4918691;29;19930;-57
2021/08/25 12:22:25;;;;;;;;;;;;;;;39.83;20.98;94106.44;4924018;29;19923;-67
2021/08/25 12:24:52;;;;;;;;;;;;;;;39.68;20.79;94101.03;4919037;29;20510;-53
2021/08/25 12:27:19;;;;;;;;;;;;;;;39.87;19.94;94089.81;4899969;29;19927;-66
2021/08/25 12:29:46;;;;;;;;;;;;;;;39.94;19.73;94094.84;4899116;29;19924;-60
2021/08/25 12:32:14;;;;;;;;;;;;;;;40.30;19.43;94094.19;4899482;29;19930;-49
2021/08/25 12:35:13;;;;;;;;;;;;;;;39.98;20.05;94092.66;4899654;29;19926;-70
2021/08/25 12:37:46;;;;;;;;;;;;;;;39.47;20.45;94096.78;4888395;29;19919;-51
2021/08/25 12:40:13;;;;;;;;;;;;;;;39.95;20.27;94101.84;4912212;29;19923;-55
2021/08/25 12:42:41;;;;;;;;;;;;;;;39.86;19.93;94099.25;4918169;29;19934;-56
2021/08/25 12:45:08;;;;;;;;;;;;;;;39.27;20.78;94099.53;4917795;29;20238;-58
2021/08/25 12:47:35;;;;;;;;;;;;;;;39.25;20.79;94099.25;4918720;29;19923;-56
2021/08/25 12:50:02;;;;;;;;;;;;;;;40.61;19.84;94101.69;4917209;29;19919;-51
2021/08/25 12:52:29;;;;;;;;;;;;;;;41.37;18.86;94092.91;4918151;29;19930;-46